createdAt,value
2018-06-10T00:00:29.589Z,19.60
2018-06-10T00:02:59.234Z,19.57
2018-06-10T00:05:28.804Z,19.54
2018-06-10T00:07:58.902Z,19.62
2018-06-10T00:10:29.447Z,19.62
2018-06-10T00:12:59.378Z,19.66
2018-06-10T00:15:28.792Z,19.60
2018-06-10T00:17:58.479Z,19.65
2018-06-10T00:20:28.097Z,19.68
2018-06-10T00:22:57.718Z,19.63
2018-06-10T00:25:27.573Z,19.67
2018-06-10T00:28:03.824Z,19.69
2018-06-10T00:30:33.375Z,19.78
2018-06-10T00:33:02.946Z,19.79
2018-06-10T00:35:32.586Z,19.94
2018-06-10T00:38:02.751Z,20.00
2018-06-10T00:40:32.398Z,19.97
2018-06-10T00:43:01.963Z,20.00
2018-06-10T00:45:31.512Z,20.01
2018-06-10T00:48:01.394Z,19.95
2018-06-10T00:50:31.281Z,19.97
2018-06-10T00:53:01.068Z,19.96
2018-06-10T00:55:30.536Z,19.93
2018-06-10T00:58:00.371Z,19.89
2018-06-10T01:00:30.259Z,19.86
2018-06-10T01:02:59.825Z,19.84
2018-06-10T01:05:29.704Z,19.84
2018-06-10T01:07:59.901Z,19.85
2018-06-10T01:10:29.918Z,19.89
2018-06-10T01:12:59.535Z,19.95
2018-06-10T01:15:30.671Z,19.94
2018-06-10T01:18:00.228Z,19.96
2018-06-10T01:20:29.741Z,19.91
2018-06-10T01:22:59.287Z,19.93
2018-06-10T01:25:28.821Z,19.89
2018-06-10T01:27:58.682Z,19.88
2018-06-10T01:30:29.338Z,19.90
2018-06-10T01:32:58.848Z,19.89
2018-06-10T01:35:28.509Z,19.83
2018-06-10T01:37:58.419Z,19.93
2018-06-10T01:40:27.866Z,19.98
2018-06-10T01:42:57.376Z,20.01
2018-06-10T03:07:26.277Z,19.37
2018-06-10T03:09:55.771Z,19.37
2018-06-10T03:12:25.435Z,19.46
2018-06-10T03:14:54.868Z,19.55
2018-06-10T03:17:24.390Z,19.61
2018-06-10T03:19:53.778Z,19.64
2018-06-10T03:22:23.296Z,19.63
2018-06-10T03:24:52.609Z,19.63
2018-06-10T03:27:23.037Z,19.61
2018-06-10T03:29:53.040Z,19.64
2018-06-10T03:32:22.689Z,19.62
2018-06-10T03:34:52.014Z,19.59
2018-06-10T03:37:21.454Z,19.65
2018-06-10T03:39:50.711Z,19.70
2018-06-10T03:42:20.134Z,19.70
2018-06-10T03:44:49.545Z,19.70
2018-06-10T03:47:18.920Z,19.67
2018-06-10T03:49:48.325Z,19.65
2018-06-10T03:52:17.718Z,19.64
2018-06-10T03:54:46.988Z,19.68
2018-06-10T03:57:16.299Z,19.64
2018-06-10T03:59:45.561Z,19.71
2018-06-10T04:02:14.818Z,19.70
2018-06-10T04:04:44.162Z,19.74
2018-06-10T04:07:13.545Z,19.79
2018-06-10T04:09:42.845Z,19.86
2018-06-10T04:12:12.082Z,19.80
2018-06-10T04:14:41.755Z,19.81
2018-06-10T04:17:11.031Z,19.88
2018-06-10T04:19:40.328Z,20.02
2018-06-10T04:22:09.921Z,20.09
2018-06-10T04:24:39.237Z,19.95
2018-06-10T04:27:08.616Z,19.78
2018-06-10T04:29:38.050Z,19.74
2018-06-10T04:32:07.348Z,20.01
2018-06-10T04:34:36.822Z,20.23
2018-06-10T04:37:06.285Z,20.35
2018-06-10T04:39:35.862Z,20.31
2018-06-10T04:42:05.544Z,20.07
2018-06-10T04:44:34.995Z,19.82
2018-06-10T04:47:04.458Z,19.78
2018-06-10T04:49:33.811Z,19.73
2018-06-10T04:52:03.464Z,19.67
2018-06-10T04:54:32.982Z,19.58
2018-06-10T04:57:02.509Z,19.52
2018-06-10T04:59:31.910Z,19.57
2018-06-10T05:02:01.365Z,19.63
2018-06-10T05:04:31.059Z,19.73
2018-06-10T05:07:00.861Z,19.75
2018-06-10T05:09:30.263Z,19.76
2018-06-10T05:11:59.817Z,19.75
2018-06-10T05:14:29.662Z,19.79
2018-06-10T05:16:59.292Z,19.79
2018-06-10T05:19:29.308Z,19.83
2018-06-10T05:21:58.930Z,19.83
2018-06-10T05:24:28.365Z,19.89
2018-06-10T05:26:57.731Z,20.00
2018-06-10T05:29:27.558Z,20.08
2018-06-10T05:31:57.008Z,20.24
2018-06-10T05:34:27.254Z,20.45
2018-06-10T05:36:57.545Z,20.61
2018-06-10T05:39:27.927Z,20.85
2018-06-10T05:41:57.740Z,21.02
2018-06-10T05:44:27.403Z,21.22
2018-06-10T05:46:57.083Z,21.31
2018-06-10T05:49:27.200Z,21.54
2018-06-10T05:51:56.962Z,21.63
2018-06-10T05:54:26.349Z,21.76
2018-06-10T05:56:55.761Z,21.58
2018-06-10T05:59:25.986Z,21.61
2018-06-10T06:01:55.315Z,21.72
2018-06-10T06:04:24.680Z,21.92
2018-06-10T06:06:54.016Z,21.96
2018-06-10T06:09:23.450Z,21.96
2018-06-10T06:11:52.717Z,21.98
2018-06-10T06:14:22.030Z,22.02
2018-06-10T06:16:51.357Z,21.92
2018-06-10T06:19:20.606Z,21.84
2018-06-10T06:21:50.046Z,21.69
2018-06-10T06:24:19.329Z,21.56
2018-06-10T06:26:48.559Z,21.61
2018-06-10T06:29:18.094Z,21.65
2018-06-10T06:31:47.697Z,21.75
2018-06-10T06:34:16.941Z,21.73
2018-06-10T06:36:46.189Z,21.87
2018-06-10T06:39:15.602Z,22.01
2018-06-10T06:41:45.080Z,22.07
2018-06-10T06:44:14.345Z,22.22
2018-06-10T06:46:43.669Z,22.36
2018-06-10T06:49:12.940Z,22.54
2018-06-10T06:51:42.221Z,22.69
2018-06-10T06:54:11.479Z,22.74
2018-06-10T06:56:40.992Z,22.80
2018-06-10T06:59:10.368Z,22.76
2018-06-10T07:01:40.011Z,22.82
2018-06-10T07:04:09.238Z,22.84
2018-06-10T07:06:38.573Z,23.11
2018-06-10T07:09:08.369Z,23.23
2018-06-10T07:11:37.770Z,23.26
2018-06-10T07:14:07.391Z,23.44
2018-06-10T07:16:36.665Z,23.46
2018-06-10T07:19:06.013Z,23.07
2018-06-10T07:21:35.770Z,23.27
2018-06-10T07:24:05.386Z,23.28
2018-06-10T07:26:34.733Z,23.11
2018-06-10T07:29:04.414Z,23.18
2018-06-10T07:31:33.949Z,23.37
2018-06-10T07:34:03.558Z,23.39
2018-06-10T07:36:33.306Z,23.24
2018-06-10T07:39:03.057Z,23.39
2018-06-10T07:41:32.573Z,23.19
2018-06-10T07:44:02.190Z,23.26
2018-06-10T07:46:31.926Z,23.02
2018-06-10T07:49:01.813Z,23.00
2018-06-10T07:51:31.612Z,22.77
2018-06-10T07:54:01.024Z,22.95
2018-06-10T07:56:30.413Z,22.92
2018-06-10T07:59:00.157Z,22.99
2018-06-10T08:01:29.673Z,23.09
2018-06-10T08:03:59.823Z,23.02
2018-06-10T08:06:29.910Z,22.99
2018-06-10T08:08:59.589Z,22.92
2018-06-10T08:11:29.613Z,22.88
2018-06-10T08:13:59.613Z,22.88
2018-06-10T08:16:29.528Z,22.96
2018-06-10T08:19:02.789Z,23.13
2018-06-10T08:21:32.239Z,23.24
2018-06-10T08:24:02.027Z,23.20
2018-06-10T08:26:31.959Z,23.18
2018-06-10T08:29:01.785Z,23.13
2018-06-10T08:31:31.567Z,22.92
2018-06-10T08:34:01.870Z,23.16
2018-06-10T08:36:31.779Z,23.29
2018-06-10T08:39:01.901Z,23.61
2018-06-10T08:41:31.963Z,23.85
2018-06-10T08:44:03.162Z,24.06
2018-06-10T08:46:33.314Z,24.06
2018-06-10T08:49:04.512Z,24.05
2018-06-10T08:51:35.772Z,24.04
2018-06-10T08:54:05.534Z,23.89
2018-06-10T08:56:35.629Z,23.85
2018-06-10T08:59:05.150Z,23.65
2018-06-10T09:01:34.674Z,23.39
2018-06-10T09:04:04.205Z,23.61
2018-06-10T09:06:34.144Z,23.49
2018-06-10T09:09:04.852Z,23.53
2018-06-10T09:11:34.334Z,23.58
2018-06-10T09:14:04.404Z,23.19
2018-06-10T09:16:35.934Z,22.91
2018-06-10T09:19:05.991Z,22.92
2018-06-10T09:21:35.958Z,22.72
2018-06-10T09:24:05.650Z,22.63
2018-06-10T09:26:37.478Z,22.16
2018-06-10T09:29:06.956Z,21.93
2018-06-10T09:31:37.224Z,21.97
2018-06-10T09:34:07.966Z,21.76
2018-06-10T09:36:38.190Z,21.80
2018-06-10T09:39:09.202Z,21.77
2018-06-10T09:41:39.026Z,21.44
2018-06-10T09:44:08.543Z,21.52
2018-06-10T09:46:38.310Z,21.51
2018-06-10T09:49:07.737Z,21.54
2018-06-10T09:51:38.556Z,21.12
2018-06-10T09:54:08.207Z,20.92
2018-06-10T09:56:38.099Z,20.66
2018-06-10T09:59:07.777Z,20.85
2018-06-10T10:01:37.835Z,20.88
2018-06-10T10:04:07.325Z,21.02
2018-06-10T10:06:36.731Z,21.01
2018-06-10T10:09:08.048Z,20.86
2018-06-10T10:11:37.514Z,20.77
2018-06-10T10:14:07.211Z,20.56
2018-06-10T10:16:37.410Z,20.67
2018-06-10T10:19:06.837Z,20.81
2018-06-10T10:21:36.421Z,20.89
2018-06-10T10:24:06.297Z,20.80
2018-06-10T10:26:36.049Z,20.60
2018-06-10T10:29:06.576Z,20.48
2018-06-10T10:31:36.593Z,20.58
2018-06-10T10:34:05.975Z,20.54
2018-06-10T10:36:35.326Z,20.49
2018-06-10T10:39:07.265Z,20.56
2018-06-10T10:41:36.766Z,20.60
2018-06-10T10:44:06.439Z,20.61
2018-06-10T10:46:35.812Z,20.74
2018-06-10T10:49:05.790Z,20.73
2018-06-10T10:51:35.945Z,20.46
2018-06-10T10:54:05.723Z,19.94
2018-06-10T10:56:35.537Z,19.59
2018-06-10T10:59:05.591Z,19.58
2018-06-10T11:01:35.416Z,19.70
2018-06-10T11:04:05.246Z,19.86
2018-06-10T11:06:36.117Z,19.87
2018-06-10T11:09:07.973Z,19.74
2018-06-10T11:11:38.005Z,19.85
2018-06-10T11:14:07.315Z,20.16
2018-06-10T11:16:36.812Z,20.29
2018-06-10T11:19:06.863Z,20.34
2018-06-10T11:21:36.366Z,19.82
2018-06-10T11:24:05.931Z,19.75
2018-06-10T11:26:35.625Z,19.79
2018-06-10T11:29:05.679Z,19.77
2018-06-10T11:31:35.302Z,19.82
2018-06-10T11:34:12.352Z,19.83
2018-06-10T11:36:43.096Z,19.84
2018-06-10T11:39:14.123Z,19.71
2018-06-10T11:41:43.920Z,19.90
2018-06-10T11:44:14.758Z,19.80
2018-06-10T11:46:45.418Z,19.78
2018-06-10T11:49:15.038Z,19.85
2018-06-10T11:51:44.768Z,19.71
2018-06-10T11:54:15.704Z,19.71
2018-06-10T11:56:45.230Z,19.79
2018-06-10T11:59:14.479Z,19.60
2018-06-10T12:01:44.380Z,19.60
2018-06-10T12:04:13.973Z,19.26
2018-06-10T12:06:43.227Z,19.06
2018-06-10T12:09:13.652Z,19.07
2018-06-10T12:11:43.183Z,19.01
2018-06-10T12:14:12.537Z,19.28
2018-06-10T12:16:42.658Z,19.29
2018-06-10T12:19:11.981Z,19.32
2018-06-10T12:21:41.427Z,19.09
2018-06-10T12:24:10.831Z,18.98
2018-06-10T12:26:40.561Z,19.09
2018-06-10T12:29:21.511Z,19.08
2018-06-10T12:31:52.301Z,19.09
2018-06-10T12:34:23.206Z,19.15
2018-06-10T12:36:56.392Z,19.38
2018-06-10T12:41:55.462Z,19.75
2018-06-10T12:44:25.608Z,19.95
2018-06-10T12:46:55.372Z,19.85
2018-06-10T12:49:25.921Z,20.06
2018-06-10T12:51:55.809Z,20.34
2018-06-10T12:54:25.402Z,20.07
2018-06-10T12:56:55.318Z,20.45
2018-06-10T12:59:25.990Z,20.53
2018-06-10T13:01:55.606Z,20.53
2018-06-10T13:04:25.216Z,20.62
2018-06-10T13:06:55.068Z,20.86
2018-06-10T13:09:24.590Z,20.81
2018-06-10T13:11:54.061Z,21.03
2018-06-10T13:14:23.481Z,21.47
2018-06-10T13:16:52.962Z,21.84
2018-06-10T13:19:23.630Z,22.11
2018-06-10T13:21:52.891Z,22.33
2018-06-10T13:24:22.242Z,22.48
2018-06-10T13:26:51.789Z,22.65
2018-06-10T13:29:21.045Z,22.71
2018-06-10T13:31:50.535Z,22.94
2018-06-10T13:34:20.463Z,22.82
2018-06-10T13:36:49.872Z,22.79
2018-06-10T13:39:19.365Z,22.79
2018-06-10T13:41:48.889Z,22.80
2018-06-10T13:44:18.281Z,22.97
2018-06-10T13:46:47.661Z,22.84
2018-06-10T13:49:17.372Z,22.59
2018-06-10T13:51:47.799Z,21.95
2018-06-10T13:54:17.281Z,22.26
2018-06-10T13:56:46.727Z,22.26
2018-06-10T13:59:16.114Z,21.36
2018-06-10T14:01:46.573Z,21.01
2018-06-10T14:04:15.945Z,20.86
2018-06-10T14:06:45.245Z,21.10
2018-06-10T14:09:14.550Z,21.31
2018-06-10T14:11:43.852Z,21.44
2018-06-10T14:14:13.350Z,21.42
2018-06-10T14:16:42.665Z,21.20
2018-06-10T14:19:12.069Z,20.99
2018-06-10T14:21:41.415Z,21.22
2018-06-10T14:24:10.793Z,21.44
2018-06-10T14:26:40.220Z,21.63
2018-06-10T14:29:09.770Z,21.93
2018-06-10T14:31:39.084Z,22.10
2018-06-10T14:36:54.155Z,21.61
2018-06-10T14:39:23.730Z,21.71
2018-06-10T14:41:54.016Z,21.76
2018-06-10T14:44:23.357Z,21.41
2018-06-10T14:46:52.828Z,21.21
2018-06-10T14:49:22.125Z,21.16
2018-06-10T14:51:51.529Z,21.42
2018-06-10T14:54:21.105Z,21.41
2018-06-10T14:56:50.512Z,21.17
2018-06-10T14:59:19.839Z,20.75
2018-06-10T15:01:49.724Z,20.83
2018-06-10T15:04:19.138Z,21.12
2018-06-10T15:06:48.637Z,21.41
2018-06-10T15:09:18.100Z,21.76
2018-06-10T15:11:47.500Z,21.99
2018-06-10T15:14:17.242Z,22.63
2018-06-10T15:16:47.508Z,23.07
2018-06-10T15:19:16.906Z,22.57
2018-06-10T15:21:46.388Z,22.30
2018-06-10T15:24:15.818Z,21.99
2018-06-10T15:26:45.205Z,21.99
2018-06-10T15:29:14.652Z,21.98
2018-06-10T15:31:44.027Z,22.06
2018-06-10T15:34:13.313Z,21.53
2018-06-10T15:36:43.026Z,21.36
2018-06-10T15:39:12.329Z,21.52
2018-06-10T15:41:41.852Z,21.51
2018-06-10T15:44:11.303Z,21.54
2018-06-10T15:46:40.687Z,21.31
2018-06-10T15:49:09.983Z,21.21
2018-06-10T15:51:39.801Z,21.19
2018-06-10T15:54:09.207Z,21.33
2018-06-10T15:56:38.732Z,21.36
2018-06-10T15:59:08.498Z,21.60
2018-06-10T16:01:38.003Z,21.71
2018-06-10T16:04:07.681Z,21.74
2018-06-10T16:06:37.475Z,21.73
2018-06-10T16:09:08.313Z,21.75
2018-06-10T16:11:38.093Z,21.75
2018-06-10T16:14:07.735Z,21.72
2018-06-10T16:16:37.400Z,21.67
2018-06-10T16:19:07.057Z,21.64
2018-06-10T16:21:39.778Z,21.52
2018-06-10T16:24:11.189Z,21.49
2018-06-10T16:26:40.799Z,21.60
2018-06-10T16:29:10.128Z,21.48
2018-06-10T16:31:40.049Z,21.55
2018-06-10T16:34:09.512Z,21.55
2018-06-10T16:36:38.979Z,21.69
2018-06-10T16:39:11.124Z,21.50
2018-06-10T16:41:40.534Z,21.21
2018-06-10T16:44:09.997Z,21.10
2018-06-10T16:46:41.396Z,21.33
2018-06-10T16:49:11.478Z,21.29
2018-06-10T16:51:41.229Z,21.13
2018-06-10T16:54:13.292Z,21.09
2018-06-10T16:56:44.657Z,21.07
2018-06-10T16:59:22.487Z,20.96
2018-06-10T17:01:52.216Z,20.70
2018-06-10T17:04:23.125Z,20.88
2018-06-10T17:06:57.163Z,20.82
2018-06-10T17:09:31.836Z,20.97
2018-06-10T17:12:02.690Z,21.15
2018-06-10T17:14:32.613Z,21.07
2018-06-10T17:17:02.177Z,20.89
2018-06-10T17:19:31.738Z,20.76
2018-06-10T17:22:01.335Z,20.90
2018-06-10T17:24:30.912Z,20.95
2018-06-10T17:27:02.338Z,21.22
2018-06-10T17:29:32.933Z,21.39
2018-06-10T17:32:06.277Z,21.48
2018-06-10T17:34:40.327Z,21.39
2018-06-10T17:37:13.869Z,21.49
2018-06-10T17:39:43.209Z,21.48
2018-06-10T17:42:12.464Z,21.47
2018-06-10T17:44:42.089Z,21.55
2018-06-10T17:47:11.378Z,21.63
2018-06-10T17:49:41.308Z,21.52
2018-06-10T17:52:11.117Z,21.62
2018-06-10T17:54:40.571Z,21.81
2018-06-10T17:57:09.971Z,21.79
2018-06-10T17:59:40.013Z,21.72
2018-06-10T18:02:09.474Z,21.73
2018-06-10T18:04:39.018Z,21.59
2018-06-10T18:07:08.408Z,21.29
2018-06-10T18:09:37.979Z,21.29
2018-06-10T18:12:07.720Z,21.28
2018-06-10T18:14:37.361Z,21.41
2018-06-10T18:17:06.979Z,21.40
2018-06-10T18:19:36.411Z,21.37
2018-06-10T18:22:06.407Z,21.19
2018-06-10T18:24:36.400Z,21.18
2018-06-10T18:27:05.938Z,21.18
2018-06-10T18:29:35.627Z,21.22
2018-06-10T18:32:05.049Z,21.14
2018-06-10T18:34:34.842Z,20.98
2018-06-10T18:37:04.239Z,20.98
2018-06-10T18:39:33.976Z,20.95
2018-06-10T18:42:03.383Z,20.92
2018-06-10T18:44:33.796Z,21.06
2018-06-10T18:47:03.486Z,21.00
2018-06-10T18:49:32.965Z,21.08
2018-06-10T18:52:02.613Z,21.09
2018-06-10T18:54:32.182Z,20.99
2018-06-10T18:57:02.274Z,20.87
2018-06-10T18:59:32.043Z,20.85
2018-06-10T19:02:01.550Z,20.81
2018-06-10T19:04:31.642Z,20.68
2018-06-10T19:07:01.140Z,20.62
2018-06-10T19:09:31.160Z,20.53
2018-06-10T19:12:00.660Z,20.48
2018-06-10T19:14:30.506Z,20.40
2018-06-10T19:17:00.293Z,20.17
2018-06-10T19:19:30.756Z,20.13
2018-06-10T19:22:01.043Z,20.06
2018-06-10T19:24:41.708Z,19.84
2018-06-10T19:27:17.989Z,19.90
2018-06-10T19:29:47.994Z,19.72
2018-06-10T19:32:33.596Z,19.50
2018-06-10T19:35:07.378Z,19.35
2018-06-10T19:37:41.608Z,19.24
2018-06-10T19:40:20.989Z,19.11
2018-06-10T19:42:56.418Z,18.74
2018-06-10T19:45:29.512Z,18.70
2018-06-10T19:48:00.410Z,18.68
2018-06-10T19:50:33.507Z,18.69
2018-06-10T19:53:07.660Z,18.57
2018-06-10T19:55:38.343Z,18.50
2018-06-10T19:58:11.239Z,18.43
2018-06-10T20:00:44.353Z,18.37
2018-06-10T20:03:17.293Z,18.35
2018-06-10T20:05:50.321Z,18.37
2018-06-10T20:08:24.913Z,18.34
2018-06-10T20:10:58.505Z,18.11
2018-06-10T20:13:33.082Z,18.03
2018-06-10T20:16:06.673Z,18.01
2018-06-10T20:18:40.283Z,17.96
2018-06-10T20:21:13.791Z,17.97
2018-06-10T20:23:47.803Z,17.98
2018-06-10T20:26:22.412Z,18.01
2018-06-10T20:28:56.515Z,17.94
2018-06-10T20:31:30.734Z,18.04
2018-06-10T20:34:00.404Z,18.08
2018-06-10T20:36:30.018Z,18.04
2018-06-10T20:38:59.594Z,18.01
2018-06-10T20:41:29.677Z,18.00
2018-06-10T20:43:59.131Z,17.91
2018-06-10T20:46:28.984Z,17.94
2018-06-10T20:48:58.946Z,18.00
2018-06-10T20:51:28.548Z,17.93
2018-06-10T20:53:59.146Z,17.92
2018-06-10T20:56:29.150Z,17.99
2018-06-10T20:58:58.675Z,17.96
2018-06-10T21:01:29.284Z,17.93
2018-06-10T21:03:59.206Z,17.80
2018-06-10T21:06:28.812Z,17.89
2018-06-10T21:08:58.656Z,17.85
2018-06-10T21:11:28.618Z,17.82
2018-06-10T21:13:58.225Z,17.81
2018-06-10T21:16:28.855Z,17.77
2018-06-10T21:18:58.542Z,17.80
2018-06-10T21:21:29.246Z,17.83
2018-06-10T21:23:58.859Z,17.85
2018-06-10T21:26:28.909Z,17.88
2018-06-10T21:28:58.687Z,17.79
2018-06-10T21:31:28.413Z,17.74
2018-06-10T21:33:58.127Z,17.85
2018-06-10T21:36:28.781Z,17.88
2018-06-10T21:38:59.459Z,17.93
2018-06-10T21:41:29.325Z,17.91
2018-06-10T21:43:59.085Z,17.81
2018-06-10T21:46:29.113Z,17.88
2018-06-10T21:48:58.881Z,17.87
2018-06-10T21:51:28.606Z,17.85
2018-06-10T21:53:58.751Z,17.86
2018-06-10T21:56:28.639Z,17.86
2018-06-10T21:59:02.753Z,17.88
2018-06-10T22:01:36.867Z,17.88
2018-06-10T22:04:10.888Z,17.88
2018-06-10T22:06:40.512Z,17.82
2018-06-10T22:09:10.307Z,17.86
2018-06-10T22:11:40.844Z,17.86
2018-06-10T22:14:10.321Z,17.82
2018-06-10T22:16:40.360Z,17.85
2018-06-10T22:19:10.391Z,17.82
2018-06-10T22:21:39.813Z,17.77
2018-06-10T22:24:09.584Z,17.70
2018-06-10T22:26:39.681Z,17.65
2018-06-10T22:29:09.117Z,17.56
2018-06-10T22:31:39.123Z,17.54
2018-06-10T22:34:08.705Z,17.55
2018-06-10T22:36:38.232Z,17.57
2018-06-10T22:39:08.613Z,17.59
2018-06-10T22:41:38.297Z,17.63
2018-06-10T22:44:07.775Z,17.62
2018-06-10T22:46:37.066Z,17.51
2018-06-10T22:49:06.714Z,17.48
2018-06-10T22:51:36.178Z,17.37
2018-06-10T22:54:17.162Z,17.22
2018-06-10T22:56:46.513Z,17.16
2018-06-10T22:59:15.757Z,17.15
2018-06-10T23:01:45.524Z,17.13
2018-06-10T23:04:14.765Z,17.09
2018-06-10T23:06:44.066Z,17.11
2018-06-10T23:09:13.668Z,17.06
2018-06-10T23:11:43.013Z,17.07
2018-06-10T23:14:12.410Z,17.00
2018-06-10T23:16:42.021Z,17.06
2018-06-10T23:19:11.372Z,17.02
2018-06-10T23:21:40.790Z,16.98
2018-06-10T23:24:10.918Z,16.99
2018-06-10T23:26:40.165Z,17.02
2018-06-10T23:29:09.485Z,16.97
2018-06-10T23:31:38.792Z,16.97
2018-06-10T23:34:08.044Z,16.84
2018-06-10T23:36:37.422Z,16.80
2018-06-10T23:39:07.355Z,16.71
2018-06-10T23:41:36.882Z,16.53
2018-06-10T23:44:06.564Z,16.35
2018-06-10T23:46:36.440Z,16.32
2018-06-10T23:49:05.862Z,16.23
2018-06-10T23:51:35.365Z,16.16
2018-06-10T23:54:04.974Z,16.06
2018-06-10T23:56:34.563Z,16.02
2018-06-10T23:59:04.064Z,15.93
